createdAt,value
2023-04-02T00:25:31.708Z,7.50
2023-04-02T00:29:05.776Z,7.50
2023-04-02T00:32:54.821Z,9.30
2023-04-02T00:36:30.271Z,6.70
2023-04-02T01:23:04.293Z,6.50
2023-04-02T01:26:54.999Z,6.70
2023-04-02T01:30:49.794Z,6.10
2023-04-02T01:34:38.976Z,5.60
2023-04-02T01:38:35.181Z,6.30
2023-04-02T01:42:30.759Z,6.60
2023-04-02T02:16:49.962Z,6.60
2023-04-02T02:20:57.305Z,5.60
2023-04-02T02:24:47.671Z,6.30
2023-04-02T02:28:55.106Z,6.50
2023-04-02T02:32:28.655Z,6.10
2023-04-02T03:30:44.588Z,5.70
2023-04-02T03:38:32.788Z,6.10
2023-04-02T03:43:01.207Z,6.00
2023-04-02T03:46:52.797Z,5.80
2023-04-02T03:50:42.554Z,4.60
2023-04-02T03:54:32.496Z,5.40
2023-04-02T03:58:46.454Z,5.00
2023-04-02T04:02:24.393Z,2.60
2023-04-02T05:09:51.999Z,5.10
2023-04-02T05:14:05.139Z,4.30
2023-04-02T05:18:05.993Z,5.10
2023-04-02T05:22:15.929Z,4.80
2023-04-02T05:26:14.116Z,4.80
2023-04-02T05:29:50.589Z,4.90
2023-04-02T05:33:35.406Z,4.90
2023-04-02T05:37:24.696Z,4.60
2023-04-02T05:41:22.618Z,5.70
2023-04-02T05:45:20.900Z,4.30
2023-04-02T05:49:19.359Z,4.80
2023-04-02T06:39:44.726Z,4.10
2023-04-02T06:43:36.620Z,4.70
2023-04-02T06:47:38.032Z,4.60
2023-04-02T06:51:48.051Z,4.60
2023-04-02T07:15:20.963Z,3.60
2023-04-02T07:19:03.213Z,4.30
2023-04-02T07:22:52.215Z,4.60
2023-04-02T07:26:42.415Z,6.40
2023-04-02T07:46:09.522Z,3.20
2023-04-02T07:49:38.544Z,4.40
2023-04-02T07:53:27.431Z,4.10
2023-04-02T07:57:16.444Z,4.00
2023-04-02T08:16:46.982Z,4.20
2023-04-02T08:20:36.190Z,4.20
2023-04-02T08:24:26.450Z,5.10
2023-04-02T08:27:02.750Z,3.20
2023-04-02T08:30:15.004Z,5.10
2023-04-02T08:32:46.440Z,3.80
2023-04-02T10:32:06.864Z,20.10
2023-04-02T10:36:02.622Z,18.30
2023-04-02T10:40:06.310Z,17.10
2023-04-02T10:44:47.097Z,18.10
2023-04-02T10:49:21.384Z,15.00
2023-04-02T10:53:34.661Z,15.90
2023-04-02T10:57:24.478Z,14.10
2023-04-02T11:01:29.019Z,16.30
2023-04-02T11:05:23.985Z,13.80
2023-04-02T11:09:19.020Z,8.90
2023-04-02T11:13:20.358Z,11.20
2023-04-02T11:21:09.471Z,8.70
2023-04-02T11:25:12.554Z,9.90
2023-04-02T11:36:33.272Z,8.00
2023-04-02T11:40:30.156Z,7.50
2023-04-02T11:44:34.384Z,7.00
2023-04-02T11:48:42.402Z,6.60
2023-04-02T11:56:51.087Z,7.20
2023-04-02T12:01:40.472Z,6.20
2023-04-02T12:05:39.563Z,7.40
2023-04-02T12:09:29.690Z,8.00
2023-04-02T12:13:19.062Z,6.50
2023-04-02T12:17:11.018Z,8.30
2023-04-02T12:21:03.126Z,6.30
2023-04-02T12:44:20.055Z,5.60
2023-04-02T12:48:02.467Z,6.40
2023-04-02T12:51:51.447Z,6.30
2023-04-02T12:55:36.184Z,7.10
2023-04-02T12:59:13.686Z,5.80
2023-04-02T13:03:03.433Z,5.90
2023-04-02T13:06:53.565Z,5.80
2023-04-02T13:10:56.017Z,8.50
2023-04-02T14:37:45.008Z,6.60
2023-04-02T14:41:26.346Z,5.90
2023-04-02T14:45:15.311Z,5.80
2023-04-02T14:49:10.059Z,6.90
2023-04-02T14:53:05.007Z,5.70
2023-04-02T14:56:46.072Z,5.00
2023-04-02T15:00:43.266Z,5.60
2023-04-02T15:04:48.104Z,7.20
2023-04-02T15:09:09.351Z,7.70
2023-04-02T15:13:01.436Z,6.20
2023-04-02T15:16:56.445Z,6.60
2023-04-02T15:20:57.731Z,6.20
2023-04-02T15:25:00.318Z,7.90
2023-04-02T15:29:18.891Z,7.20
2023-04-02T15:33:15.362Z,7.70
2023-04-02T15:37:37.953Z,7.50
2023-04-02T15:40:51.931Z,7.70
2023-04-02T15:44:31.231Z,7.60
2023-04-02T15:47:48.018Z,7.80
2023-04-02T15:51:24.555Z,7.90
2023-04-02T15:54:25.091Z,8.70
2023-04-02T15:57:10.609Z,9.20
2023-04-02T15:59:57.379Z,10.60
2023-04-02T16:02:33.457Z,12.60
2023-04-02T16:05:19.228Z,10.50
2023-04-02T16:08:29.186Z,9.50
2023-04-02T16:10:57.900Z,8.70
2023-04-02T16:13:29.012Z,9.30
2023-04-02T16:16:25.949Z,10.60
2023-04-02T16:19:16.721Z,9.40
2023-04-02T16:22:14.836Z,8.00
2023-04-02T16:24:43.314Z,10.10
2023-04-02T16:27:29.884Z,9.80
2023-04-02T16:30:37.265Z,9.10
2023-04-02T16:33:40.814Z,10.10
2023-04-02T16:36:47.081Z,8.90
2023-04-02T16:39:40.351Z,10.00
2023-04-02T16:42:24.901Z,8.80
2023-04-02T16:45:16.924Z,8.00
2023-04-02T16:47:55.052Z,7.70
2023-04-02T16:50:30.801Z,8.00
2023-04-02T16:53:11.046Z,7.80
2023-04-02T16:56:28.067Z,7.30
2023-04-02T16:59:41.295Z,9.40
2023-04-02T17:02:40.041Z,7.60
2023-04-02T17:05:33.784Z,8.30
2023-04-02T17:08:29.065Z,9.10
2023-04-02T17:11:01.970Z,6.60
2023-04-02T17:13:45.656Z,7.40
2023-04-02T17:16:35.932Z,7.60
2023-04-02T17:19:15.010Z,8.80
2023-04-02T17:21:47.798Z,7.80
2023-04-02T17:24:27.334Z,7.80
2023-04-02T17:27:04.317Z,7.60
2023-04-02T17:29:46.464Z,8.00
2023-04-02T17:32:30.214Z,6.80
2023-04-02T17:35:19.026Z,7.80
2023-04-02T17:38:00.119Z,7.40
2023-04-02T17:41:10.035Z,6.70
2023-04-02T17:43:48.454Z,7.20
2023-04-02T17:46:50.112Z,7.10
2023-04-02T17:50:00.470Z,6.60
2023-04-02T17:52:45.137Z,6.90
2023-04-02T17:55:53.416Z,7.00
2023-04-02T17:58:53.056Z,6.50
2023-04-02T18:01:51.756Z,6.10
2023-04-02T18:04:44.595Z,7.10
2023-04-02T18:07:53.228Z,7.40
2023-04-02T18:11:11.875Z,7.20
2023-04-02T18:13:57.968Z,5.70
2023-04-02T18:16:58.766Z,9.90
2023-04-02T18:20:01.494Z,7.00
2023-04-02T18:23:02.229Z,6.00
2023-04-02T18:26:00.128Z,5.60
2023-04-02T18:28:49.096Z,5.70
2023-04-02T18:31:32.582Z,5.20
2023-04-02T18:34:35.648Z,7.40
2023-04-02T18:37:28.122Z,6.70
2023-04-02T18:40:22.322Z,5.70
2023-04-02T18:43:14.552Z,6.70
2023-04-02T18:46:12.866Z,6.70
2023-04-02T18:48:56.995Z,8.00
2023-04-02T18:51:30.473Z,6.20
2023-04-02T18:54:36.230Z,6.80
2023-04-02T18:57:20.125Z,6.80
2023-04-02T19:00:01.484Z,6.30
2023-04-02T19:04:06.095Z,6.50
2023-04-02T19:07:53.107Z,6.80
2023-04-02T19:11:54.153Z,6.20
2023-04-02T19:19:18.470Z,6.40
2023-04-02T19:23:28.943Z,7.10
2023-04-02T19:31:31.298Z,6.90
2023-04-02T19:35:27.902Z,6.10
2023-04-02T19:54:38.928Z,6.00
2023-04-02T19:58:28.101Z,6.30
2023-04-02T20:13:56.926Z,7.40
2023-04-02T20:17:46.132Z,5.60
2023-04-02T20:25:37.292Z,7.80
2023-04-02T20:29:27.178Z,6.10
2023-04-02T20:44:51.402Z,8.00
2023-04-02T20:48:40.397Z,6.00
2023-04-02T21:08:03.337Z,6.50
2023-04-02T21:11:52.202Z,7.30
2023-04-02T21:15:42.417Z,6.00
2023-04-02T21:34:38.129Z,6.00
2023-04-02T21:38:27.250Z,6.40
2023-04-02T21:42:07.253Z,6.50
2023-04-02T21:45:56.425Z,5.60
2023-04-02T21:57:46.880Z,6.50
2023-04-02T22:01:29.204Z,6.70
2023-04-02T22:05:14.886Z,4.80
2023-04-02T22:09:03.861Z,6.00
2023-04-02T22:35:37.361Z,4.90
2023-04-02T22:39:26.523Z,5.60
2023-04-02T22:43:15.726Z,4.60
2023-04-02T23:02:23.519Z,4.90
2023-04-02T23:06:06.527Z,4.90
2023-04-02T23:09:49.862Z,4.50
2023-04-02T23:25:19.350Z,4.90
2023-04-02T23:28:58.693Z,4.80
2023-04-02T23:32:47.797Z,4.40
2023-04-02T23:51:52.429Z,5.60
2023-04-02T23:55:23.901Z,4.10
2023-04-02T23:59:13.987Z,5.10
